sensor_id;sensor_type;location;lat;lon;timestamp;temperature;humidity
24011;DHT22;12217;50.792;4.372;2023-07-28T00:00:25;18.20;99.90
24011;DHT22;12217;50.792;4.372;2023-07-28T00:02:51;18.00;99.90
24011;DHT22;12217;50.792;4.372;2023-07-28T00:05:17;18.20;99.90
24011;DHT22;12217;50.792;4.372;2023-07-28T00:07:42;18.10;99.90
24011;DHT22;12217;50.792;4.372;2023-07-28T00:10:08;18.00;99.90
24011;DHT22;12217;50.792;4.372;2023-07-28T00:12:34;18.10;99.90
24011;DHT22;12217;50.792;4.372;2023-07-28T00:15:00;18.10;99.90
24011;DHT22;12217;50.792;4.372;2023-07-28T00:17:26;18.10;99.90
24011;DHT22;12217;50.792;4.372;2023-07-28T00:19:51;18.00;99.90
24011;DHT22;12217;50.792;4.372;2023-07-28T00:22:17;18.10;99.90
24011;DHT22;12217;50.792;4.372;2023-07-28T00:24:42;18.10;99.90
24011;DHT22;12217;50.792;4.372;2023-07-28T00:27:08;18.00;99.90
24011;DHT22;12217;50.792;4.372;2023-07-28T00:29:33;18.00;99.90
24011;DHT22;12217;50.792;4.372;2023-07-28T00:31:59;18.10;99.90
24011;DHT22;12217;50.792;4.372;2023-07-28T00:34:25;18.10;99.90
24011;DHT22;12217;50.792;4.372;2023-07-28T00:36:52;18.10;99.90
24011;DHT22;12217;50.792;4.372;2023-07-28T00:39:18;18.10;99.90
24011;DHT22;12217;50.792;4.372;2023-07-28T00:41:43;18.20;99.90
24011;DHT22;12217;50.792;4.372;2023-07-28T00:44:09;18.20;99.90
24011;DHT22;12217;50.792;4.372;2023-07-28T00:46:35;18.10;99.90
24011;DHT22;12217;50.792;4.372;2023-07-28T00:49:00;18.10;99.90
24011;DHT22;12217;50.792;4.372;2023-07-28T00:51:26;18.20;99.90
24011;DHT22;12217;50.792;4.372;2023-07-28T00:53:52;18.20;99.90
24011;DHT22;12217;50.792;4.372;2023-07-28T00:56:21;18.30;99.90
24011;DHT22;12217;50.792;4.372;2023-07-28T00:58:46;18.30;99.90
24011;DHT22;12217;50.792;4.372;2023-07-28T01:01:12;18.30;99.90
24011;DHT22;12217;50.792;4.372;2023-07-28T01:03:38;18.40;99.90
24011;DHT22;12217;50.792;4.372;2023-07-28T01:09:02;18.50;99.90
24011;DHT22;12217;50.792;4.372;2023-07-28T01:11:31;18.50;99.90
24011;DHT22;12217;50.792;4.372;2023-07-28T01:13:57;18.30;99.90
24011;DHT22;12217;50.792;4.372;2023-07-28T01:16:23;18.50;99.90
24011;DHT22;12217;50.792;4.372;2023-07-28T01:18:49;18.40;99.90
24011;DHT22;12217;50.792;4.372;2023-07-28T01:21:22;18.30;99.90
24011;DHT22;12217;50.792;4.372;2023-07-28T01:24:27;18.30;99.90
24011;DHT22;12217;50.792;4.372;2023-07-28T01:26:54;18.30;99.90
24011;DHT22;12217;50.792;4.372;2023-07-28T01:29:21;18.30;99.90
24011;DHT22;12217;50.792;4.372;2023-07-28T01:31:47;18.30;99.90
24011;DHT22;12217;50.792;4.372;2023-07-28T01:34:13;18.30;99.90
24011;DHT22;12217;50.792;4.372;2023-07-28T01:36:39;18.20;99.90
24011;DHT22;12217;50.792;4.372;2023-07-28T01:39:04;18.30;99.90
24011;DHT22;12217;50.792;4.372;2023-07-28T01:41:30;18.40;99.90
24011;DHT22;12217;50.792;4.372;2023-07-28T01:43:55;18.30;99.90
24011;DHT22;12217;50.792;4.372;2023-07-28T01:46:21;18.50;99.90
24011;DHT22;12217;50.792;4.372;2023-07-28T01:48:47;18.40;99.90
24011;DHT22;12217;50.792;4.372;2023-07-28T01:51:13;18.50;99.90
24011;DHT22;12217;50.792;4.372;2023-07-28T01:53:39;18.50;99.90
24011;DHT22;12217;50.792;4.372;2023-07-28T01:56:04;18.50;99.90
24011;DHT22;12217;50.792;4.372;2023-07-28T01:58:30;18.60;99.90
24011;DHT22;12217;50.792;4.372;2023-07-28T02:00:55;18.70;99.90
24011;DHT22;12217;50.792;4.372;2023-07-28T02:03:21;18.70;99.90
24011;DHT22;12217;50.792;4.372;2023-07-28T02:05:48;18.60;99.90
24011;DHT22;12217;50.792;4.372;2023-07-28T02:08:14;18.70;99.90
24011;DHT22;12217;50.792;4.372;2023-07-28T02:10:39;18.80;99.90
24011;DHT22;12217;50.792;4.372;2023-07-28T02:13:05;18.70;99.90
24011;DHT22;12217;50.792;4.372;2023-07-28T02:15:30;18.70;99.90
24011;DHT22;12217;50.792;4.372;2023-07-28T02:17:56;18.70;99.90
24011;DHT22;12217;50.792;4.372;2023-07-28T02:20:22;18.70;99.90
24011;DHT22;12217;50.792;4.372;2023-07-28T02:22:47;18.80;99.90
24011;DHT22;12217;50.792;4.372;2023-07-28T02:25:13;18.70;99.90
24011;DHT22;12217;50.792;4.372;2023-07-28T02:27:38;18.70;99.90
24011;DHT22;12217;50.792;4.372;2023-07-28T02:30:05;18.80;99.90
24011;DHT22;12217;50.792;4.372;2023-07-28T02:32:31;18.80;99.90
24011;DHT22;12217;50.792;4.372;2023-07-28T02:34:57;18.80;99.90
24011;DHT22;12217;50.792;4.372;2023-07-28T02:37:23;18.60;99.90
24011;DHT22;12217;50.792;4.372;2023-07-28T02:39:49;18.70;99.90
24011;DHT22;12217;50.792;4.372;2023-07-28T02:42:15;18.60;99.90
24011;DHT22;12217;50.792;4.372;2023-07-28T02:44:40;18.70;99.90
24011;DHT22;12217;50.792;4.372;2023-07-28T02:47:06;18.60;99.90
24011;DHT22;12217;50.792;4.372;2023-07-28T02:49:32;18.60;99.90
24011;DHT22;12217;50.792;4.372;2023-07-28T02:51:57;18.50;99.90
24011;DHT22;12217;50.792;4.372;2023-07-28T02:54:24;18.60;99.90
24011;DHT22;12217;50.792;4.372;2023-07-28T02:56:50;18.60;99.90
24011;DHT22;12217;50.792;4.372;2023-07-28T02:59:16;18.70;99.90
24011;DHT22;12217;50.792;4.372;2023-07-28T03:01:41;18.80;99.90
24011;DHT22;12217;50.792;4.372;2023-07-28T03:04:07;18.80;99.90
24011;DHT22;12217;50.792;4.372;2023-07-28T03:06:33;18.60;99.90
24011;DHT22;12217;50.792;4.372;2023-07-28T03:08:59;18.60;99.90
24011;DHT22;12217;50.792;4.372;2023-07-28T03:11:24;18.60;99.90
24011;DHT22;12217;50.792;4.372;2023-07-28T03:13:50;18.50;99.90
24011;DHT22;12217;50.792;4.372;2023-07-28T03:16:15;18.60;99.90
24011;DHT22;12217;50.792;4.372;2023-07-28T03:18:41;18.50;99.90
24011;DHT22;12217;50.792;4.372;2023-07-28T03:21:08;18.60;99.90
24011;DHT22;12217;50.792;4.372;2023-07-28T03:23:35;18.50;99.90
24011;DHT22;12217;50.792;4.372;2023-07-28T03:26:00;18.50;99.90
24011;DHT22;12217;50.792;4.372;2023-07-28T03:28:26;18.40;99.90
24011;DHT22;12217;50.792;4.372;2023-07-28T03:30:51;18.40;99.90
24011;DHT22;12217;50.792;4.372;2023-07-28T03:33:17;18.40;99.90
24011;DHT22;12217;50.792;4.372;2023-07-28T03:35:43;18.50;99.90
24011;DHT22;12217;50.792;4.372;2023-07-28T03:38:08;18.50;99.90
24011;DHT22;12217;50.792;4.372;2023-07-28T03:40:34;18.50;99.90
24011;DHT22;12217;50.792;4.372;2023-07-28T03:42:59;18.60;99.90
24011;DHT22;12217;50.792;4.372;2023-07-28T03:45:25;18.70;99.90
24011;DHT22;12217;50.792;4.372;2023-07-28T03:47:51;18.60;99.90
24011;DHT22;12217;50.792;4.372;2023-07-28T03:50:16;18.50;99.90
24011;DHT22;12217;50.792;4.372;2023-07-28T03:52:42;18.50;99.90
24011;DHT22;12217;50.792;4.372;2023-07-28T03:55:07;18.60;99.90
24011;DHT22;12217;50.792;4.372;2023-07-28T03:57:33;18.50;99.90
24011;DHT22;12217;50.792;4.372;2023-07-28T03:59:59;18.70;99.90
24011;DHT22;12217;50.792;4.372;2023-07-28T04:02:24;18.70;99.90
24011;DHT22;12217;50.792;4.372;2023-07-28T04:04:54;18.70;99.90
24011;DHT22;12217;50.792;4.372;2023-07-28T04:07:20;18.60;99.90
24011;DHT22;12217;50.792;4.372;2023-07-28T04:09:46;18.50;99.90
24011;DHT22;12217;50.792;4.372;2023-07-28T04:12:11;18.50;99.90
24011;DHT22;12217;50.792;4.372;2023-07-28T04:14:37;18.60;99.90
24011;DHT22;12217;50.792;4.372;2023-07-28T04:17:03;18.50;99.90
24011;DHT22;12217;50.792;4.372;2023-07-28T04:19:28;18.50;99.90
24011;DHT22;12217;50.792;4.372;2023-07-28T04:21:56;18.50;99.90
24011;DHT22;12217;50.792;4.372;2023-07-28T04:24:22;18.70;99.90
24011;DHT22;12217;50.792;4.372;2023-07-28T04:26:47;18.60;99.90
24011;DHT22;12217;50.792;4.372;2023-07-28T04:29:16;18.70;99.90
24011;DHT22;12217;50.792;4.372;2023-07-28T04:31:41;18.70;99.90
24011;DHT22;12217;50.792;4.372;2023-07-28T04:34:07;18.80;99.90
24011;DHT22;12217;50.792;4.372;2023-07-28T04:36:32;18.60;99.90
24011;DHT22;12217;50.792;4.372;2023-07-28T04:38:58;18.60;99.90
24011;DHT22;12217;50.792;4.372;2023-07-28T04:41:24;18.70;99.90
24011;DHT22;12217;50.792;4.372;2023-07-28T04:43:49;18.90;99.90
24011;DHT22;12217;50.792;4.372;2023-07-28T04:46:15;18.80;99.90
24011;DHT22;12217;50.792;4.372;2023-07-28T04:48:41;18.90;99.90
24011;DHT22;12217;50.792;4.372;2023-07-28T04:51:06;18.90;99.90
24011;DHT22;12217;50.792;4.372;2023-07-28T04:53:32;18.80;99.90
24011;DHT22;12217;50.792;4.372;2023-07-28T04:55:57;18.70;99.90
24011;DHT22;12217;50.792;4.372;2023-07-28T04:58:23;18.70;99.90
24011;DHT22;12217;50.792;4.372;2023-07-28T05:00:48;18.80;99.90
24011;DHT22;12217;50.792;4.372;2023-07-28T05:03:14;18.80;99.90
24011;DHT22;12217;50.792;4.372;2023-07-28T05:05:43;18.60;99.90
24011;DHT22;12217;50.792;4.372;2023-07-28T05:08:09;18.70;99.90
24011;DHT22;12217;50.792;4.372;2023-07-28T05:10:35;18.70;99.90
24011;DHT22;12217;50.792;4.372;2023-07-28T05:13:00;18.60;99.90
24011;DHT22;12217;50.792;4.372;2023-07-28T05:15:26;18.70;99.90
24011;DHT22;12217;50.792;4.372;2023-07-28T05:17:52;18.90;99.90
24011;DHT22;12217;50.792;4.372;2023-07-28T05:20:17;18.90;99.90
24011;DHT22;12217;50.792;4.372;2023-07-28T05:22:43;18.90;99.90
24011;DHT22;12217;50.792;4.372;2023-07-28T05:25:08;18.80;99.90
24011;DHT22;12217;50.792;4.372;2023-07-28T05:27:34;18.90;99.90
24011;DHT22;12217;50.792;4.372;2023-07-28T05:30:00;18.90;99.90
24011;DHT22;12217;50.792;4.372;2023-07-28T05:32:25;18.90;99.90
24011;DHT22;12217;50.792;4.372;2023-07-28T05:34:51;18.90;99.90
24011;DHT22;12217;50.792;4.372;2023-07-28T05:37:17;19.00;99.90
24011;DHT22;12217;50.792;4.372;2023-07-28T05:39:42;19.00;99.90
24011;DHT22;12217;50.792;4.372;2023-07-28T05:42:09;19.10;99.90
24011;DHT22;12217;50.792;4.372;2023-07-28T05:44:35;19.30;99.90
24011;DHT22;12217;50.792;4.372;2023-07-28T05:47:00;19.10;99.90
24011;DHT22;12217;50.792;4.372;2023-07-28T05:49:26;19.10;99.90
24011;DHT22;12217;50.792;4.372;2023-07-28T05:51:51;19.10;99.90
24011;DHT22;12217;50.792;4.372;2023-07-28T05:54:17;19.20;99.90
24011;DHT22;12217;50.792;4.372;2023-07-28T05:56:43;19.10;99.90
24011;DHT22;12217;50.792;4.372;2023-07-28T05:59:09;19.10;99.90
24011;DHT22;12217;50.792;4.372;2023-07-28T06:01:35;19.00;99.90
24011;DHT22;12217;50.792;4.372;2023-07-28T06:04:00;18.90;99.90
24011;DHT22;12217;50.792;4.372;2023-07-28T06:06:26;19.00;99.90
24011;DHT22;12217;50.792;4.372;2023-07-28T06:08:52;18.90;99.90
24011;DHT22;12217;50.792;4.372;2023-07-28T06:11:18;18.90;99.90
24011;DHT22;12217;50.792;4.372;2023-07-28T06:13:44;19.00;99.90
24011;DHT22;12217;50.792;4.372;2023-07-28T06:16:12;18.90;99.90
24011;DHT22;12217;50.792;4.372;2023-07-28T06:18:37;18.90;99.90
24011;DHT22;12217;50.792;4.372;2023-07-28T06:21:03;18.90;99.90
24011;DHT22;12217;50.792;4.372;2023-07-28T06:23:28;18.80;99.90
24011;DHT22;12217;50.792;4.372;2023-07-28T06:25:54;18.80;99.90
24011;DHT22;12217;50.792;4.372;2023-07-28T06:28:20;19.00;99.90
24011;DHT22;12217;50.792;4.372;2023-07-28T06:30:46;19.10;99.90
24011;DHT22;12217;50.792;4.372;2023-07-28T06:33:12;19.20;99.90
24011;DHT22;12217;50.792;4.372;2023-07-28T06:35:38;19.30;99.90
24011;DHT22;12217;50.792;4.372;2023-07-28T06:38:04;19.20;99.90
24011;DHT22;12217;50.792;4.372;2023-07-28T06:40:29;19.20;99.90
24011;DHT22;12217;50.792;4.372;2023-07-28T06:42:55;19.20;99.90
24011;DHT22;12217;50.792;4.372;2023-07-28T06:45:21;19.20;99.90
24011;DHT22;12217;50.792;4.372;2023-07-28T06:47:46;19.20;99.90
24011;DHT22;12217;50.792;4.372;2023-07-28T06:50:12;19.40;99.90
24011;DHT22;12217;50.792;4.372;2023-07-28T06:52:38;19.50;99.90
24011;DHT22;12217;50.792;4.372;2023-07-28T06:55:04;19.50;99.90
24011;DHT22;12217;50.792;4.372;2023-07-28T06:57:30;19.50;99.90
24011;DHT22;12217;50.792;4.372;2023-07-28T06:59:56;19.50;99.90
24011;DHT22;12217;50.792;4.372;2023-07-28T07:02:22;19.50;99.90
24011;DHT22;12217;50.792;4.372;2023-07-28T07:04:48;19.60;99.90
24011;DHT22;12217;50.792;4.372;2023-07-28T07:07:14;19.80;99.90
24011;DHT22;12217;50.792;4.372;2023-07-28T07:09:39;19.80;99.90
24011;DHT22;12217;50.792;4.372;2023-07-28T07:12:08;19.90;99.90
24011;DHT22;12217;50.792;4.372;2023-07-28T07:14:33;20.00;99.90
24011;DHT22;12217;50.792;4.372;2023-07-28T07:16:59;19.90;99.90
24011;DHT22;12217;50.792;4.372;2023-07-28T07:19:25;19.90;99.90
24011;DHT22;12217;50.792;4.372;2023-07-28T07:21:50;19.60;99.90
24011;DHT22;12217;50.792;4.372;2023-07-28T07:24:16;19.60;99.90
24011;DHT22;12217;50.792;4.372;2023-07-28T07:26:42;19.60;99.90
24011;DHT22;12217;50.792;4.372;2023-07-28T07:29:10;19.70;99.90
24011;DHT22;12217;50.792;4.372;2023-07-28T07:31:36;19.80;99.90
24011;DHT22;12217;50.792;4.372;2023-07-28T07:34:01;19.90;99.90
24011;DHT22;12217;50.792;4.372;2023-07-28T07:36:29;20.00;99.90
24011;DHT22;12217;50.792;4.372;2023-07-28T07:38:55;19.90;99.90
24011;DHT22;12217;50.792;4.372;2023-07-28T07:41:21;20.00;99.90
24011;DHT22;12217;50.792;4.372;2023-07-28T07:43:48;20.20;99.90
24011;DHT22;12217;50.792;4.372;2023-07-28T07:46:15;20.40;99.90
24011;DHT22;12217;50.792;4.372;2023-07-28T07:48:41;20.40;99.90
24011;DHT22;12217;50.792;4.372;2023-07-28T07:51:08;20.40;99.90
24011;DHT22;12217;50.792;4.372;2023-07-28T07:53:34;20.40;99.90
24011;DHT22;12217;50.792;4.372;2023-07-28T07:56:05;20.10;99.90
24011;DHT22;12217;50.792;4.372;2023-07-28T07:58:31;20.00;99.90
24011;DHT22;12217;50.792;4.372;2023-07-28T08:00:56;20.00;99.90
24011;DHT22;12217;50.792;4.372;2023-07-28T08:03:22;20.00;99.90
24011;DHT22;12217;50.792;4.372;2023-07-28T08:05:48;19.90;99.90
24011;DHT22;12217;50.792;4.372;2023-07-28T08:08:14;20.00;99.90
24011;DHT22;12217;50.792;4.372;2023-07-28T08:10:43;20.20;99.90
24011;DHT22;12217;50.792;4.372;2023-07-28T08:13:09;20.20;99.90
24011;DHT22;12217;50.792;4.372;2023-07-28T08:15:36;20.10;99.90
24011;DHT22;12217;50.792;4.372;2023-07-28T08:18:01;20.00;99.90
24011;DHT22;12217;50.792;4.372;2023-07-28T08:20:27;20.10;99.90
24011;DHT22;12217;50.792;4.372;2023-07-28T08:22:52;20.10;99.90
24011;DHT22;12217;50.792;4.372;2023-07-28T08:25:18;20.10;99.90
24011;DHT22;12217;50.792;4.372;2023-07-28T08:27:44;20.30;99.90
24011;DHT22;12217;50.792;4.372;2023-07-28T08:30:10;20.20;99.90
24011;DHT22;12217;50.792;4.372;2023-07-28T08:32:36;20.20;99.90
24011;DHT22;12217;50.792;4.372;2023-07-28T08:35:02;20.30;99.90
24011;DHT22;12217;50.792;4.372;2023-07-28T08:37:28;20.50;99.90
24011;DHT22;12217;50.792;4.372;2023-07-28T08:39:54;20.60;99.90
24011;DHT22;12217;50.792;4.372;2023-07-28T08:42:21;20.60;99.90
24011;DHT22;12217;50.792;4.372;2023-07-28T08:44:50;20.70;99.90
24011;DHT22;12217;50.792;4.372;2023-07-28T08:47:18;20.80;99.90
24011;DHT22;12217;50.792;4.372;2023-07-28T08:49:44;20.70;99.90
24011;DHT22;12217;50.792;4.372;2023-07-28T08:52:10;20.50;99.90
24011;DHT22;12217;50.792;4.372;2023-07-28T08:54:35;20.50;99.90
24011;DHT22;12217;50.792;4.372;2023-07-28T08:57:01;20.70;99.90
24011;DHT22;12217;50.792;4.372;2023-07-28T08:59:29;20.60;99.90
24011;DHT22;12217;50.792;4.372;2023-07-28T09:01:56;20.50;99.90
24011;DHT22;12217;50.792;4.372;2023-07-28T09:04:24;20.50;99.90
24011;DHT22;12217;50.792;4.372;2023-07-28T09:06:50;20.80;99.90
24011;DHT22;12217;50.792;4.372;2023-07-28T09:09:18;20.80;99.90
24011;DHT22;12217;50.792;4.372;2023-07-28T09:11:48;20.90;99.90
24011;DHT22;12217;50.792;4.372;2023-07-28T09:14:16;21.00;99.90
24011;DHT22;12217;50.792;4.372;2023-07-28T09:16:43;21.00;99.90
24011;DHT22;12217;50.792;4.372;2023-07-28T09:19:09;21.00;99.90
24011;DHT22;12217;50.792;4.372;2023-07-28T09:21:35;20.90;99.90
24011;DHT22;12217;50.792;4.372;2023-07-28T09:24:08;20.80;99.90
24011;DHT22;12217;50.792;4.372;2023-07-28T09:29:17;20.70;99.90
24011;DHT22;12217;50.792;4.372;2023-07-28T09:31:44;20.40;99.90
24011;DHT22;12217;50.792;4.372;2023-07-28T09:34:11;20.60;99.90
24011;DHT22;12217;50.792;4.372;2023-07-28T09:36:37;20.50;99.90
24011;DHT22;12217;50.792;4.372;2023-07-28T09:39:05;20.70;99.90
24011;DHT22;12217;50.792;4.372;2023-07-28T09:41:38;20.70;99.90
24011;DHT22;12217;50.792;4.372;2023-07-28T09:44:07;20.90;99.90
24011;DHT22;12217;50.792;4.372;2023-07-28T09:46:33;21.20;99.90
24011;DHT22;12217;50.792;4.372;2023-07-28T09:49:04;21.30;99.90
24011;DHT22;12217;50.792;4.372;2023-07-28T09:51:31;21.30;99.90
24011;DHT22;12217;50.792;4.372;2023-07-28T09:54:11;21.40;99.90
24011;DHT22;12217;50.792;4.372;2023-07-28T09:56:38;21.30;99.90
24011;DHT22;12217;50.792;4.372;2023-07-28T09:59:11;21.00;99.90
24011;DHT22;12217;50.792;4.372;2023-07-28T10:01:39;21.00;99.90
24011;DHT22;12217;50.792;4.372;2023-07-28T10:04:05;21.10;99.90
24011;DHT22;12217;50.792;4.372;2023-07-28T10:06:32;21.00;99.90
24011;DHT22;12217;50.792;4.372;2023-07-28T10:08:59;21.20;99.90
24011;DHT22;12217;50.792;4.372;2023-07-28T10:11:25;21.20;99.90
24011;DHT22;12217;50.792;4.372;2023-07-28T10:13:54;21.00;99.90
24011;DHT22;12217;50.792;4.372;2023-07-28T10:16:20;20.90;99.90
24011;DHT22;12217;50.792;4.372;2023-07-28T10:18:54;21.00;99.90
24011;DHT22;12217;50.792;4.372;2023-07-28T10:21:20;21.00;99.90
24011;DHT22;12217;50.792;4.372;2023-07-28T10:23:54;20.90;99.90
24011;DHT22;12217;50.792;4.372;2023-07-28T10:29:12;21.10;99.90
24011;DHT22;12217;50.792;4.372;2023-07-28T10:31:50;21.40;99.90
24011;DHT22;12217;50.792;4.372;2023-07-28T10:34:17;21.60;99.90
24011;DHT22;12217;50.792;4.372;2023-07-28T10:36:44;21.60;99.90
24011;DHT22;12217;50.792;4.372;2023-07-28T10:39:15;21.60;99.90
24011;DHT22;12217;50.792;4.372;2023-07-28T10:44:27;21.90;99.90
24011;DHT22;12217;50.792;4.372;2023-07-28T10:46:53;21.90;99.90
24011;DHT22;12217;50.792;4.372;2023-07-28T10:49:19;21.90;99.90
24011;DHT22;12217;50.792;4.372;2023-07-28T10:51:45;21.80;99.90
24011;DHT22;12217;50.792;4.372;2023-07-28T10:54:12;21.70;99.90
24011;DHT22;12217;50.792;4.372;2023-07-28T10:56:41;21.50;99.90
24011;DHT22;12217;50.792;4.372;2023-07-28T10:59:06;21.60;99.90
24011;DHT22;12217;50.792;4.372;2023-07-28T11:01:36;21.50;99.90
24011;DHT22;12217;50.792;4.372;2023-07-28T11:04:16;21.50;99.90
24011;DHT22;12217;50.792;4.372;2023-07-28T11:06:44;21.90;99.90
24011;DHT22;12217;50.792;4.372;2023-07-28T11:09:10;22.20;99.90
24011;DHT22;12217;50.792;4.372;2023-07-28T11:11:39;22.20;99.90
24011;DHT22;12217;50.792;4.372;2023-07-28T11:14:06;22.20;99.90
24011;DHT22;12217;50.792;4.372;2023-07-28T11:16:41;22.30;99.90
24011;DHT22;12217;50.792;4.372;2023-07-28T11:19:10;22.20;99.90
24011;DHT22;12217;50.792;4.372;2023-07-28T11:21:40;22.40;99.90
24011;DHT22;12217;50.792;4.372;2023-07-28T11:24:18;22.90;99.90
24011;DHT22;12217;50.792;4.372;2023-07-28T11:26:44;23.10;99.90
24011;DHT22;12217;50.792;4.372;2023-07-28T11:29:11;23.20;99.90
24011;DHT22;12217;50.792;4.372;2023-07-28T11:31:37;23.30;99.90
24011;DHT22;12217;50.792;4.372;2023-07-28T11:34:03;23.20;99.90
24011;DHT22;12217;50.792;4.372;2023-07-28T11:36:37;22.80;99.90
24011;DHT22;12217;50.792;4.372;2023-07-28T11:39:03;22.90;99.90
24011;DHT22;12217;50.792;4.372;2023-07-28T11:41:31;23.10;99.90
24011;DHT22;12217;50.792;4.372;2023-07-28T11:43:58;23.40;99.90
24011;DHT22;12217;50.792;4.372;2023-07-28T11:46:39;23.10;99.90
24011;DHT22;12217;50.792;4.372;2023-07-28T11:49:18;23.00;99.90
24011;DHT22;12217;50.792;4.372;2023-07-28T11:51:54;23.20;99.90
24011;DHT22;12217;50.792;4.372;2023-07-28T11:54:25;23.40;99.90
24011;DHT22;12217;50.792;4.372;2023-07-28T11:56:53;23.60;99.90
24011;DHT22;12217;50.792;4.372;2023-07-28T11:59:20;23.70;99.90
24011;DHT22;12217;50.792;4.372;2023-07-28T12:02:04;24.10;99.90
24011;DHT22;12217;50.792;4.372;2023-07-28T12:04:32;24.40;99.90
24011;DHT22;12217;50.792;4.372;2023-07-28T12:07:05;24.50;99.90
24011;DHT22;12217;50.792;4.372;2023-07-28T12:09:50;24.60;99.90
24011;DHT22;12217;50.792;4.372;2023-07-28T12:12:24;24.50;99.90
24011;DHT22;12217;50.792;4.372;2023-07-28T12:14:52;24.30;99.90
24011;DHT22;12217;50.792;4.372;2023-07-28T12:17:19;24.00;99.90
24011;DHT22;12217;50.792;4.372;2023-07-28T12:20:08;23.40;99.90
24011;DHT22;12217;50.792;4.372;2023-07-28T12:22:40;23.40;99.90
24011;DHT22;12217;50.792;4.372;2023-07-28T12:25:06;23.40;99.90
24011;DHT22;12217;50.792;4.372;2023-07-28T12:27:32;23.40;99.90
24011;DHT22;12217;50.792;4.372;2023-07-28T12:29:58;23.70;99.90
24011;DHT22;12217;50.792;4.372;2023-07-28T12:32:24;23.90;99.90
24011;DHT22;12217;50.792;4.372;2023-07-28T12:34:50;24.10;99.90
24011;DHT22;12217;50.792;4.372;2023-07-28T12:37:17;24.20;99.90
24011;DHT22;12217;50.792;4.372;2023-07-28T12:39:43;24.70;99.90
24011;DHT22;12217;50.792;4.372;2023-07-28T12:42:10;25.10;99.90
24011;DHT22;12217;50.792;4.372;2023-07-28T12:44:36;25.40;99.90
24011;DHT22;12217;50.792;4.372;2023-07-28T12:47:02;24.90;99.90
24011;DHT22;12217;50.792;4.372;2023-07-28T12:49:29;24.80;99.90
24011;DHT22;12217;50.792;4.372;2023-07-28T12:51:58;24.70;99.90
24011;DHT22;12217;50.792;4.372;2023-07-28T12:54:25;25.00;99.90
24011;DHT22;12217;50.792;4.372;2023-07-28T12:56:51;25.00;99.90
24011;DHT22;12217;50.792;4.372;2023-07-28T12:59:17;25.00;99.90
24011;DHT22;12217;50.792;4.372;2023-07-28T13:01:42;24.90;99.90
24011;DHT22;12217;50.792;4.372;2023-07-28T13:04:08;24.70;99.90
24011;DHT22;12217;50.792;4.372;2023-07-28T13:06:33;24.40;99.90
24011;DHT22;12217;50.792;4.372;2023-07-28T13:08:59;24.30;99.90
24011;DHT22;12217;50.792;4.372;2023-07-28T13:11:25;24.20;99.90
24011;DHT22;12217;50.792;4.372;2023-07-28T13:13:50;24.30;99.90
24011;DHT22;12217;50.792;4.372;2023-07-28T13:16:16;24.30;99.90
24011;DHT22;12217;50.792;4.372;2023-07-28T13:18:44;24.10;99.90
24011;DHT22;12217;50.792;4.372;2023-07-28T13:21:10;24.10;99.90
24011;DHT22;12217;50.792;4.372;2023-07-28T13:23:37;24.20;99.90
24011;DHT22;12217;50.792;4.372;2023-07-28T13:26:03;24.00;99.90
24011;DHT22;12217;50.792;4.372;2023-07-28T13:28:30;23.80;99.90
24011;DHT22;12217;50.792;4.372;2023-07-28T13:30:55;23.80;99.90
24011;DHT22;12217;50.792;4.372;2023-07-28T13:33:21;23.80;99.90
24011;DHT22;12217;50.792;4.372;2023-07-28T13:35:47;23.70;99.90
24011;DHT22;12217;50.792;4.372;2023-07-28T13:38:13;23.90;99.90
24011;DHT22;12217;50.792;4.372;2023-07-28T13:40:38;24.20;99.90
24011;DHT22;12217;50.792;4.372;2023-07-28T13:43:04;24.70;99.90
24011;DHT22;12217;50.792;4.372;2023-07-28T13:45:30;25.20;99.90
24011;DHT22;12217;50.792;4.372;2023-07-28T13:47:55;25.60;99.90
24011;DHT22;12217;50.792;4.372;2023-07-28T13:50:21;25.80;99.90
24011;DHT22;12217;50.792;4.372;2023-07-28T13:52:46;25.90;99.90
24011;DHT22;12217;50.792;4.372;2023-07-28T13:55:12;26.30;99.90
24011;DHT22;12217;50.792;4.372;2023-07-28T13:57:38;26.50;99.90
24011;DHT22;12217;50.792;4.372;2023-07-28T14:00:05;26.30;99.90
24011;DHT22;12217;50.792;4.372;2023-07-28T14:02:35;25.90;99.90
24011;DHT22;12217;50.792;4.372;2023-07-28T14:05:00;25.40;99.90
24011;DHT22;12217;50.792;4.372;2023-07-28T14:07:26;25.30;99.90
24011;DHT22;12217;50.792;4.372;2023-07-28T14:09:52;25.40;99.90
24011;DHT22;12217;50.792;4.372;2023-07-28T14:12:17;25.70;99.90
24011;DHT22;12217;50.792;4.372;2023-07-28T14:14:43;25.60;99.90
24011;DHT22;12217;50.792;4.372;2023-07-28T14:17:09;25.30;99.90
24011;DHT22;12217;50.792;4.372;2023-07-28T14:19:40;25.30;99.90
24011;DHT22;12217;50.792;4.372;2023-07-28T14:22:05;25.10;99.90
24011;DHT22;12217;50.792;4.372;2023-07-28T14:24:31;24.80;99.90
24011;DHT22;12217;50.792;4.372;2023-07-28T14:26:57;24.50;99.90
24011;DHT22;12217;50.792;4.372;2023-07-28T14:29:22;24.50;99.90
24011;DHT22;12217;50.792;4.372;2023-07-28T14:31:48;24.80;99.90
24011;DHT22;12217;50.792;4.372;2023-07-28T14:34:14;25.00;99.90
24011;DHT22;12217;50.792;4.372;2023-07-28T14:36:39;25.30;99.90
24011;DHT22;12217;50.792;4.372;2023-07-28T14:39:05;25.10;99.90
24011;DHT22;12217;50.792;4.372;2023-07-28T14:41:31;25.20;99.90
24011;DHT22;12217;50.792;4.372;2023-07-28T14:43:58;25.40;99.90
24011;DHT22;12217;50.792;4.372;2023-07-28T14:46:23;25.50;99.90
24011;DHT22;12217;50.792;4.372;2023-07-28T14:48:50;25.70;99.90
24011;DHT22;12217;50.792;4.372;2023-07-28T14:51:16;26.00;99.90
24011;DHT22;12217;50.792;4.372;2023-07-28T14:53:42;25.90;99.90
24011;DHT22;12217;50.792;4.372;2023-07-28T14:56:08;26.10;99.90
24011;DHT22;12217;50.792;4.372;2023-07-28T14:58:34;26.30;99.90
24011;DHT22;12217;50.792;4.372;2023-07-28T15:01:00;26.60;99.90
24011;DHT22;12217;50.792;4.372;2023-07-28T15:03:27;26.70;99.90
24011;DHT22;12217;50.792;4.372;2023-07-28T15:05:54;26.60;99.90
24011;DHT22;12217;50.792;4.372;2023-07-28T15:08:20;26.80;99.90
24011;DHT22;12217;50.792;4.372;2023-07-28T15:10:46;26.60;99.90
24011;DHT22;12217;50.792;4.372;2023-07-28T15:13:11;26.50;99.90
24011;DHT22;12217;50.792;4.372;2023-07-28T15:15:37;26.80;99.90
24011;DHT22;12217;50.792;4.372;2023-07-28T15:18:02;27.10;99.90
24011;DHT22;12217;50.792;4.372;2023-07-28T15:20:28;27.10;99.90
24011;DHT22;12217;50.792;4.372;2023-07-28T15:22:54;27.10;99.90
24011;DHT22;12217;50.792;4.372;2023-07-28T15:25:19;27.20;99.90
24011;DHT22;12217;50.792;4.372;2023-07-28T15:27:45;26.90;99.90
24011;DHT22;12217;50.792;4.372;2023-07-28T15:30:10;26.60;99.90
24011;DHT22;12217;50.792;4.372;2023-07-28T15:32:37;26.60;99.90
24011;DHT22;12217;50.792;4.372;2023-07-28T15:35:04;26.40;99.90
24011;DHT22;12217;50.792;4.372;2023-07-28T15:37:29;26.50;99.90